Time;durP1;ratioP1;P1;durP2;ratioP2;P2;SDS_P1;SDS_P2;PMS_P1;PMS_P2;Temp;Humidity;BMP_temperature;BMP_pressure;BME280_temperature;BME280_humidity;BME280_pressure;Samples;Min_cycle;Max_cycle;Signal;HPM_P1;HPM_P2
2021/12/26 00:01:47;;;;;;;4.10;2.50;;;;;;;7.34;82.24;96403.68;108028;1272;70745;-72
2021/12/26 00:04:17;;;;;;;3.70;2.90;;;;;;;7.35;82.12;96408.63;108052;1274;68741;-74
2021/12/26 00:06:46;;;;;;;3.40;2.60;;;;;;;7.38;82.23;96417.18;108045;1270;69469;-70
2021/12/26 00:09:15;;;;;;;12.50;8.40;;;;;;;7.40;82.22;96424.85;107929;1273;58889;-69
2021/12/26 00:11:45;;;;;;;26.40;17.30;;;;;;;7.43;81.77;96419.65;107960;1271;58914;-70
2021/12/26 00:14:15;;;;;;;33.80;22.70;;;;;;;7.40;80.75;96419.52;107983;1275;70806;-71
2021/12/26 00:16:45;;;;;;;;;;;;;;;7.31;79.93;96421.23;108058;1272;67832;-73
2021/12/26 00:19:15;;;;;;;36.40;26.60;;;;;;;7.15;79.25;96422.27;107738;1273;68664;-72
2021/12/26 00:21:44;;;;;;;35.40;24.00;;;;;;;6.99;79.08;96421.02;107934;1272;58967;-70
2021/12/26 00:24:14;;;;;;;27.70;22.20;;;;;;;6.85;79.11;96423.82;108007;1272;58842;-74
2021/12/26 00:26:43;;;;;;;28.60;20.30;;;;;;;6.73;79.19;96435.59;108034;1272;70084;-66
2021/12/26 00:29:13;;;;;;;25.00;18.10;;;;;;;6.63;79.42;96442.20;107986;1272;68756;-72
2021/12/26 00:31:42;;;;;;;24.00;16.50;;;;;;;6.52;79.56;96443.48;107963;1271;69540;-74
2021/12/26 00:34:12;;;;;;;23.20;15.70;;;;;;;6.43;79.82;96450.88;108000;1274;58964;-74
2021/12/26 00:36:42;;;;;;;21.40;14.00;;;;;;;6.36;80.18;96457.80;108051;1270;58907;-71
2021/12/26 00:39:15;;;;;;;19.40;13.80;;;;;;;6.29;80.33;96459.32;108011;1271;70810;-69
2021/12/26 00:41:46;;;;;;;20.50;14.80;;;;;;;6.22;80.47;96461.25;107950;1272;67928;-73
2021/12/26 00:44:15;;;;;;;22.00;15.70;;;;;;;6.16;80.55;96465.45;108004;1272;69562;-72
2021/12/26 00:46:45;;;;;;;29.90;20.20;;;;;;;6.11;80.70;96468.34;108000;1273;58906;-71
2021/12/26 00:49:15;;;;;;;31.80;22.30;;;;;;;6.06;80.81;96472.71;108111;1274;58907;-69
2021/12/26 00:51:44;;;;;;;31.30;22.00;;;;;;;6.00;80.96;96472.27;107958;1274;70112;-74
2021/12/26 00:54:14;;;;;;;23.80;17.20;;;;;;;5.93;80.98;96471.16;107967;1272;68767;-74
2021/12/26 00:56:44;;;;;;;18.90;14.70;;;;;;;5.84;81.01;96472.64;107973;1275;69493;-71
2021/12/26 00:59:14;;;;;;;16.60;12.70;;;;;;;5.78;80.95;96472.05;107965;1274;58935;-73
2021/12/26 01:01:44;;;;;;;13.90;11.80;;;;;;;5.68;81.04;96469.73;107948;1275;59028;-70
2021/12/26 01:04:14;;;;;;;13.40;10.10;;;;;;;5.64;81.10;96470.56;108006;1272;70767;-70
2021/12/26 01:06:51;;;;;;;12.90;10.00;;;;;;;5.59;81.07;96470.14;107962;1272;68484;-68
2021/12/26 01:09:25;;;;;;;15.00;11.30;;;;;;;5.57;81.12;96474.48;108020;1275;69504;-68
2021/12/26 01:12:01;;;;;;;13.10;10.00;;;;;;;5.55;81.22;96473.24;107981;1275;58907;-72
2021/12/26 01:14:37;;;;;;;10.60;8.30;;;;;;;5.53;81.30;96476.60;107987;1272;58909;-74
2021/12/26 01:17:14;;;;;;;10.80;8.00;;;;;;;5.55;81.31;96479.30;108013;1272;69970;-72
2021/12/26 01:19:55;;;;;;;12.60;9.20;;;;;;;5.55;81.56;96473.40;108066;1273;68640;-71
2021/12/26 01:22:26;;;;;;;9.80;7.10;;;;;;;5.55;81.48;96475.80;107802;1276;68471;-67
2021/12/26 01:25:07;;;;;;;11.40;9.40;;;;;;;5.54;81.55;96473.80;107983;1271;58897;-71
2021/12/26 01:27:36;;;;;;;10.90;7.80;;;;;;;5.54;81.46;96473.33;107932;1272;58976;-73
2021/12/26 01:30:06;;;;;;;9.30;7.90;;;;;;;5.53;81.52;96471.31;107978;1272;70881;-76
2021/12/26 01:32:40;;;;;;;9.90;7.20;;;;;;;5.52;81.52;96469.97;107895;1275;67980;-68
2021/12/26 01:35:29;;;;;;;8.40;6.40;;;;;;;5.52;81.54;96467.07;107982;1273;68616;-72
2021/12/26 01:38:27;;;;;;;8.00;6.30;;;;;;;5.50;81.46;96465.48;107930;1274;58953;-73
2021/12/26 01:41:17;;;;;;;10.60;8.60;;;;;;;5.45;81.42;96468.34;108012;1272;58849;-75
2021/12/26 01:44:12;;;;;;;10.60;8.60;;;;;;;5.40;81.54;96468.90;107759;1275;70022;-71
2021/12/26 01:46:49;;;;;;;10.90;8.40;;;;;;;5.38;81.58;96470.60;108076;1271;68678;-75
2021/12/26 01:49:27;;;;;;;12.50;9.70;;;;;;;5.36;81.64;96470.69;107916;1276;69293;-74
2021/12/26 01:51:59;;;;;;;13.60;10.40;;;;;;;5.33;81.70;96471.95;108037;1274;58907;-74
2021/12/26 01:54:46;;;;;;;14.00;9.90;;;;;;;5.28;81.83;96471.23;108105;1271;59281;-73
2021/12/26 01:57:19;;;;;;;11.90;8.90;;;;;;;5.22;81.91;96469.40;108059;1274;70660;-75
2021/12/26 01:59:49;;;;;;;10.30;7.40;;;;;;;5.19;81.95;96468.71;107765;1273;68700;-74
2021/12/26 02:02:23;;;;;;;7.90;6.80;;;;;;;5.20;82.06;96470.02;107996;1275;68859;-75
2021/12/26 02:04:53;;;;;;;10.30;8.10;;;;;;;5.25;82.07;96475.77;108001;1274;58851;-74
2021/12/26 02:07:23;;;;;;;9.30;7.40;;;;;;;5.25;82.06;96474.38;107985;1272;58951;-73
2021/12/26 02:09:53;;;;;;;8.10;6.00;;;;;;;5.24;81.95;96472.37;107961;1272;71234;-74
2021/12/26 02:12:25;;;;;;;8.60;7.10;;;;;;;5.25;81.92;96474.87;107980;1272;66749;-67
2021/12/26 02:14:55;;;;;;;9.30;7.40;;;;;;;5.27;81.99;96476.64;108022;1275;69293;-68
2021/12/26 02:17:29;;;;;;;7.20;6.30;;;;;;;5.28;81.93;96477.95;107903;1275;58970;-71
2021/12/26 02:20:20;;;;;;;8.20;6.40;;;;;;;5.28;81.84;96478.68;107886;1272;58955;-65
2021/12/26 02:22:56;;;;;;;9.80;7.80;;;;;;;5.25;81.92;96480.41;107979;1274;69932;-71
2021/12/26 02:28:26;;;;;;;7.80;7.00;;;;;;;5.21;82.02;96480.39;107884;1271;68846;-71
2021/12/26 02:30:58;;;;;;;9.90;7.10;;;;;;;5.18;81.89;96476.90;108009;1274;58957;-66
2021/12/26 02:33:27;;;;;;;7.20;5.90;;;;;;;5.16;81.98;96478.77;107998;1273;58888;-65
2021/12/26 02:35:58;;;;;;;6.70;5.30;;;;;;;5.16;82.00;96482.94;108025;1272;70785;-65
2021/12/26 02:38:27;;;;;;;4.60;4.10;;;;;;;5.18;81.98;96485.91;108020;1271;68453;-72
2021/12/26 02:40:57;;;;;;;5.30;4.20;;;;;;;5.20;81.91;96491.78;107986;1272;68702;-72
2021/12/26 02:43:29;;;;;;;7.00;5.90;;;;;;;5.23;81.79;96494.55;108087;1275;58893;-67
2021/12/26 02:46:05;;;;;;;8.70;6.70;;;;;;;5.25;81.75;96492.68;108118;1272;58913;-69
2021/12/26 02:48:36;;;;;;;6.30;5.70;;;;;;;5.24;81.63;96491.02;108147;1272;69149;-68
2021/12/26 02:51:07;;;;;;;6.50;5.20;;;;;;;5.21;81.68;96488.61;107948;1272;67328;-73
2021/12/26 02:53:36;;;;;;;7.00;6.00;;;;;;;5.22;81.65;96489.30;107999;1273;69469;-70
2021/12/26 02:56:06;;;;;;;7.30;5.60;;;;;;;5.22;81.64;96494.46;108162;1273;58960;-71
2021/12/26 02:58:37;;;;;;;6.70;5.90;;;;;;;5.21;81.72;96494.01;108171;1273;58969;-64
2021/12/26 03:01:14;;;;;;;7.40;5.40;;;;;;;5.20;81.64;96496.33;107362;1272;896415;-71
2021/12/26 03:03:44;;;;;;;6.90;6.00;;;;;;;5.20;81.69;96500.27;108160;1269;67752;-68
2021/12/26 03:07:18;;;;;;;5.70;4.50;;;;;;;5.21;81.62;96507.81;107933;1272;68605;-65
2021/12/26 03:09:15;;;;;;;5.30;4.50;;;;;;;5.23;81.69;96513.41;107971;1273;58911;-71
2021/12/26 03:11:47;;;;;;;4.80;3.90;;;;;;;5.23;81.68;96507.89;108185;1273;58973;-66
2021/12/26 03:14:16;;;;;;;6.80;5.40;;;;;;;5.22;81.65;96513.83;108137;1273;70755;-68
2021/12/26 03:16:49;;;;;;;5.40;4.80;;;;;;;5.19;81.51;96513.14;108151;1273;68647;-74
2021/12/26 03:19:19;;;;;;;9.00;7.50;;;;;;;5.19;81.46;96513.52;108097;1274;69485;-69
2021/12/26 03:21:51;;;;;;;9.00;8.00;;;;;;;5.16;81.36;96516.11;107890;1271;58998;-68
2021/12/26 03:24:21;;;;;;;7.50;6.40;;;;;;;5.12;81.35;96518.75;108128;1271;58926;-68
2021/12/26 03:27:01;;;;;;;6.10;4.40;;;;;;;5.10;81.43;96522.69;108129;1271;70118;-68
2021/12/26 03:29:35;;;;;;;8.40;6.30;;;;;;;5.10;81.33;96525.42;108043;1271;68541;-66
2021/12/26 03:32:10;;;;;;;5.40;4.50;;;;;;;5.11;81.37;96525.52;107997;1274;69379;-67
2021/12/26 03:34:46;;;;;;;8.00;6.80;;;;;;;5.11;81.32;96524.84;108222;1271;58892;-64
2021/12/26 03:37:19;;;;;;;5.90;4.50;;;;;;;5.09;81.27;96523.58;107954;1271;58948;-69
2021/12/26 03:39:48;;;;;;;9.10;7.60;;;;;;;5.09;81.24;96523.97;107942;1274;70553;-73
2021/12/26 03:42:21;;;;;;;;;;;;;;;5.06;81.17;96527.06;108165;1273;68494;-69
2021/12/26 03:44:53;;;;;;;9.00;6.10;;;;;;;5.04;81.13;96527.20;107923;1272;69961;-69
2021/12/26 03:47:25;;;;;;;8.70;6.90;;;;;;;5.03;81.22;96523.98;108098;1273;59022;-65
2021/12/26 03:49:56;;;;;;;6.70;6.00;;;;;;;5.00;81.14;96522.46;108020;1273;58892;-74
2021/12/26 03:52:26;;;;;;;6.90;5.90;;;;;;;5.00;81.17;96520.09;108171;1271;70763;-74
2021/12/26 03:54:57;;;;;;;7.90;6.70;;;;;;;4.99;81.14;96527.02;108005;1274;68045;-73
2021/12/26 03:57:27;;;;;;;;;;;;;;;4.98;81.19;96522.91;108021;1271;69022;-70
2021/12/26 03:59:57;;;;;;;9.40;8.40;;;;;;;4.93;81.15;96522.77;108156;1273;58893;-72
2021/12/26 04:02:28;;;;;;;7.50;6.00;;;;;;;4.84;81.16;96522.77;108157;1271;58834;-72
2021/12/26 04:04:58;;;;;;;3.80;3.40;;;;;;;4.82;81.26;96526.37;107939;1272;70048;-68
2021/12/26 04:07:28;;;;;;;5.20;4.00;;;;;;;4.83;81.22;96525.98;108022;1273;67648;-73
2021/12/26 04:09:59;;;;;;;10.30;8.80;;;;;;;4.83;81.22;96529.94;108047;1274;69443;-74
2021/12/26 04:12:35;;;;;;;9.10;8.10;;;;;;;4.81;81.18;96531.28;107935;1272;58895;-74
2021/12/26 04:15:12;;;;;;;8.10;7.20;;;;;;;4.78;81.07;96534.24;108067;1274;58915;-73
2021/12/26 04:17:41;;;;;;;7.20;6.50;;;;;;;4.77;81.15;96535.54;108184;1270;71051;-67
2021/12/26 04:20:13;;;;;;;6.40;5.60;;;;;;;4.76;81.20;96536.44;107899;1273;68690;-67
2021/12/26 04:22:42;;;;;;;6.80;6.10;;;;;;;4.75;81.23;96534.96;107989;1272;68662;-64
2021/12/26 04:25:13;;;;;;;7.60;6.50;;;;;;;4.73;81.25;96536.77;108184;1273;58947;-71
2021/12/26 04:27:43;;;;;;;9.60;8.70;;;;;;;4.70;81.22;96537.86;108044;1269;58953;-65
2021/12/26 04:30:15;;;;;;;7.30;6.50;;;;;;;4.66;81.35;96538.63;108021;1274;70675;-68
2021/12/26 04:32:44;;;;;;;7.50;6.70;;;;;;;4.66;81.48;96538.61;107976;1273;67852;-66
2021/12/26 04:35:16;;;;;;;8.50;6.50;;;;;;;4.66;81.36;96538.63;107994;1272;69482;-65
2021/12/26 04:37:47;;;;;;;8.40;6.70;;;;;;;4.65;81.50;96535.96;107962;1271;58896;-68
2021/12/26 04:40:18;;;;;;;12.20;9.60;;;;;;;4.66;81.45;96544.68;107925;1274;58935;-67
2021/12/26 04:43:11;;;;;;;14.20;11.90;;;;;;;4.61;81.60;96544.80;108077;1273;70212;-67
2021/12/26 04:45:49;;;;;;;15.90;12.20;;;;;;;4.52;81.54;96544.33;108382;1270;68907;-68
2021/12/26 04:48:58;;;;;;;11.70;9.10;;;;;;;4.43;81.93;96549.89;108313;1269;68589;-66
2021/12/26 04:51:27;;;;;;;9.40;8.30;;;;;;;4.43;82.05;96545.73;108439;1269;58947;-68
2021/12/26 04:54:00;;;;;;;10.00;8.70;;;;;;;4.46;82.09;96547.48;108183;1272;58956;-69
2021/12/26 04:56:30;;;;;;;;;;;;;;;4.47;82.10;96542.70;107990;1274;70545;-68
2021/12/26 04:59:00;;;;;;;11.00;9.60;;;;;;;4.48;82.03;96544.20;107990;1272;68002;-67
2021/12/26 05:01:31;;;;;;;13.50;10.80;;;;;;;4.47;82.09;96547.05;108109;1273;69479;-71
2021/12/26 05:04:02;;;;;;;11.80;9.30;;;;;;;4.48;81.95;96548.21;108187;1273;58964;-65
2021/12/26 05:06:32;;;;;;;13.60;10.90;;;;;;;4.48;81.81;96546.28;108085;1274;58904;-64
2021/12/26 05:09:04;;;;;;;6.10;5.30;;;;;;;4.46;81.72;96552.30;108198;1271;70782;-66
2021/12/26 05:11:36;;;;;;;8.60;7.30;;;;;;;4.46;81.69;96552.16;108534;1272;68683;-67
2021/12/26 05:14:06;;;;;;;12.30;9.20;;;;;;;4.43;81.74;96554.40;108413;1271;69285;-69
2021/12/26 05:16:36;;;;;;;;;;;;;;;4.40;81.63;96555.47;108128;1269;58992;-72
2021/12/26 05:19:05;;;;;;;8.60;7.20;;;;;;;4.38;81.76;96553.00;108161;1271;58968;-73
2021/12/26 05:21:36;;;;;;;9.60;6.90;;;;;;;4.38;81.67;96555.42;107893;1275;70005;-73
2021/12/26 05:24:07;;;;;;;7.40;6.40;;;;;;;4.38;81.52;96559.50;108184;1273;67996;-70
2021/12/26 05:26:36;;;;;;;8.30;6.40;;;;;;;4.39;81.59;96565.52;108056;1272;69505;-74
2021/12/26 05:29:05;;;;;;;8.10;6.10;;;;;;;4.39;81.64;96564.84;108097;1273;59854;-70
2021/12/26 05:31:35;;;;;;;7.40;6.50;;;;;;;4.38;81.57;96563.64;108133;1273;58947;-74
2021/12/26 05:34:05;;;;;;;7.90;6.40;;;;;;;4.38;81.50;96562.48;107964;1272;70596;-73
2021/12/26 05:36:35;;;;;;;;;;;;;;;4.37;81.47;96570.98;107996;1274;67917;-72
2021/12/26 05:39:05;;;;;;;12.30;7.90;;;;;;;4.33;81.54;96571.58;107934;1272;68577;-64
2021/12/26 05:41:35;;;;;;;17.20;11.70;;;;;;;4.28;81.52;96576.66;107998;1274;59719;-70
2021/12/26 05:44:13;;;;;;;17.20;11.00;;;;;;;4.24;81.59;96577.77;108017;1272;59670;-74
2021/12/26 05:46:45;;;;;;;;;;;;;;;4.19;81.67;96576.02;107958;1275;70556;-71
2021/12/26 05:49:15;;;;;;;14.60;10.60;;;;;;;4.15;81.67;96578.35;107953;1272;66960;-70
2021/12/26 05:51:55;;;;;;;10.40;6.80;;;;;;;4.11;81.55;96575.98;107944;1272;68692;-69
2021/12/26 05:54:37;;;;;;;16.10;10.70;;;;;;;4.07;81.73;96574.48;107947;1272;59710;-71
2021/12/26 05:57:08;;;;;;;16.20;10.70;;;;;;;4.02;81.81;96577.90;108136;1273;59758;-70
2021/12/26 05:59:37;;;;;;;16.00;12.30;;;;;;;3.98;81.93;96578.16;108018;1275;71673;-71
2021/12/26 06:02:07;;;;;;;14.90;10.90;;;;;;;3.96;81.92;96578.24;108064;1272;68658;-73
2021/12/26 06:04:39;;;;;;;12.90;9.70;;;;;;;3.89;82.01;96580.45;107799;1272;67740;-69
2021/12/26 06:07:13;;;;;;;10.50;9.20;;;;;;;3.84;82.07;96581.92;107932;1274;59686;-73
2021/12/26 06:09:42;;;;;;;12.90;8.90;;;;;;;3.81;82.20;96581.75;108025;1273;59767;-72
2021/12/26 06:12:12;;;;;;;13.30;10.00;;;;;;;3.77;82.37;96580.09;107889;1273;70633;-70
2021/12/26 06:14:42;;;;;;;12.40;9.00;;;;;;;3.73;82.37;96585.34;108065;1270;68751;-73
2021/12/26 06:17:11;;;;;;;10.40;8.40;;;;;;;3.71;82.49;96589.08;107936;1274;68765;-74
2021/12/26 06:20:05;;;;;;;7.00;5.20;;;;;;;3.71;82.50;96597.14;107864;1274;59776;-71
2021/12/26 06:22:37;;;;;;;12.40;9.20;;;;;;;3.74;82.48;96602.66;108079;1273;59672;-70
2021/12/26 06:25:08;;;;;;;11.20;8.20;;;;;;;3.78;82.59;96602.93;107926;1273;71549;-69
2021/12/26 06:27:52;;;;;;;13.90;9.80;;;;;;;3.83;82.50;96606.08;108103;1272;67910;-73
2021/12/26 06:30:29;;;;;;;12.30;9.40;;;;;;;3.87;82.47;96604.83;107942;1272;68925;-72
2021/12/26 06:32:59;;;;;;;15.00;11.30;;;;;;;3.85;82.47;96604.96;108171;1273;59751;-73
2021/12/26 06:35:50;;;;;;;14.20;9.80;;;;;;;3.79;82.66;96605.49;108241;1270;60054;-73
2021/12/26 06:38:42;;;;;;;12.20;8.30;;;;;;;3.76;82.70;96606.51;108180;1273;71364;-72
2021/12/26 06:41:34;;;;;;;9.10;6.30;;;;;;;3.79;82.67;96604.77;107943;1273;66993;-74
2021/12/26 06:44:24;;;;;;;11.90;10.00;;;;;;;3.83;82.64;96607.11;107888;1273;69334;-64
2021/12/26 06:47:12;;;;;;;11.60;8.70;;;;;;;3.87;82.55;96604.31;108069;1274;59757;-72
2021/12/26 06:49:47;;;;;;;20.90;13.50;;;;;;;3.88;82.47;96602.00;107883;1272;59669;-73
2021/12/26 06:52:19;;;;;;;16.50;11.10;;;;;;;3.87;82.55;96601.41;107781;1275;71037;-66
2021/12/26 06:54:50;;;;;;;16.40;11.20;;;;;;;3.88;82.42;96602.20;108109;1274;67829;-73
2021/12/26 06:57:24;;;;;;;22.20;16.00;;;;;;;3.90;82.42;96602.59;107939;1275;69474;-72
2021/12/26 06:59:55;;;;;;;20.30;15.10;;;;;;;3.91;82.30;96604.06;108040;1275;59668;-73
2021/12/26 07:02:28;;;;;;;12.00;10.20;;;;;;;3.88;82.27;96607.39;107847;1275;59711;-63
2021/12/26 07:05:05;;;;;;;9.50;8.00;;;;;;;3.87;82.38;96608.82;107821;1275;72479;-72
2021/12/26 07:07:46;;;;;;;7.90;6.10;;;;;;;3.84;82.40;96603.98;107932;1272;68210;-67
2021/12/26 07:10:21;;;;;;;10.30;8.10;;;;;;;3.84;82.41;96603.61;108152;1274;69411;-74
2021/12/26 07:12:57;;;;;;;9.40;7.90;;;;;;;3.79;82.39;96606.14;107830;1275;59771;-66
2021/12/26 07:15:35;;;;;;;7.80;6.90;;;;;;;3.78;82.42;96603.98;107953;1273;59759;-70
2021/12/26 07:18:07;;;;;;;11.20;8.70;;;;;;;3.77;82.39;96605.41;107945;1275;71556;-71
2021/12/26 07:20:42;;;;;;;9.00;6.60;;;;;;;3.79;82.41;96599.27;107926;1275;68927;-66
2021/12/26 07:23:44;;;;;;;10.90;8.20;;;;;;;3.84;82.37;96605.89;107934;1275;68681;-72
2021/12/26 07:26:24;;;;;;;11.50;10.30;;;;;;;3.90;82.51;96604.66;108107;1274;59777;-67
2021/12/26 07:28:57;;;;;;;8.90;7.40;;;;;;;3.94;82.40;96605.09;108133;1272;59771;-67
2021/12/26 07:31:39;;;;;;;10.30;8.20;;;;;;;3.99;82.31;96608.23;108046;1272;71389;-72
2021/12/26 07:34:11;;;;;;;10.40;8.30;;;;;;;4.03;82.27;96607.17;107942;1273;67803;-73
2021/12/26 07:36:43;;;;;;;7.20;5.40;;;;;;;4.05;82.29;96607.20;107943;1273;68784;-63
2021/12/26 07:39:23;;;;;;;9.20;7.40;;;;;;;4.09;82.13;96610.23;107735;1275;59802;-68
2021/12/26 07:41:54;;;;;;;9.90;8.20;;;;;;;4.11;81.98;96611.86;107835;1275;59693;-64
2021/12/26 07:44:47;;;;;;;9.40;6.30;;;;;;;4.12;81.91;96617.33;107977;1273;70736;-63
2021/12/26 07:47:52;;;;;;;8.80;6.70;;;;;;;4.16;81.78;96617.95;107982;1273;68081;-74
2021/12/26 07:50:26;;;;;;;7.90;6.50;;;;;;;4.20;81.68;96620.50;107996;1275;68704;-66
2021/12/26 07:53:15;;;;;;;7.70;6.20;;;;;;;4.19;81.50;96623.27;107885;1275;59757;-63
2021/12/26 07:56:05;;;;;;;6.50;5.50;;;;;;;4.18;81.37;96623.16;108115;1272;59774;-65
2021/12/26 07:58:55;;;;;;;8.20;6.60;;;;;;;4.17;81.24;96627.23;108081;1274;70764;-74
2021/12/26 08:01:53;;;;;;;8.70;7.00;;;;;;;4.16;81.26;96629.86;107893;1272;68235;-74
2021/12/26 08:04:44;;;;;;;8.20;7.30;;;;;;;4.17;81.04;96631.70;107838;1275;70828;-70
2021/12/26 08:07:25;;;;;;;15.50;11.40;;;;;;;4.15;80.98;96633.17;108067;1273;59780;-68
2021/12/26 08:10:01;;;;;;;12.30;9.20;;;;;;;4.11;81.08;96626.69;107955;1275;59730;-72
2021/12/26 08:12:34;;;;;;;8.60;7.50;;;;;;;4.12;81.00;96633.05;107898;1275;71561;-72
2021/12/26 08:15:15;;;;;;;11.40;9.40;;;;;;;4.13;80.96;96639.05;107862;1275;68677;-67
2021/12/26 08:17:47;;;;;;;9.80;8.50;;;;;;;4.12;80.85;96644.78;108083;1272;68668;-65
2021/12/26 08:20:23;;;;;;;9.20;8.30;;;;;;;4.12;80.91;96644.44;107757;1272;59775;-65
2021/12/26 08:22:58;;;;;;;10.60;8.40;;;;;;;4.09;80.89;96645.27;108003;1274;59716;-73
2021/12/26 08:25:29;;;;;;;12.60;11.00;;;;;;;4.07;80.90;96641.08;107923;1272;70607;-72
2021/12/26 08:28:03;;;;;;;9.00;7.60;;;;;;;4.00;80.87;96639.77;107936;1273;69529;-71
2021/12/26 08:30:53;;;;;;;9.20;8.00;;;;;;;3.96;81.06;96645.02;107801;1277;70442;-70
2021/12/26 08:33:25;;;;;;;7.60;6.30;;;;;;;3.95;81.21;96646.96;107927;1275;59766;-66
2021/12/26 08:35:56;;;;;;;7.80;6.70;;;;;;;3.97;81.21;96643.73;107981;1272;59661;-67
2021/12/26 08:38:25;;;;;;;9.20;8.30;;;;;;;4.00;81.18;96643.54;107924;1273;70910;-69
2021/12/26 08:40:56;;;;;;;7.30;6.50;;;;;;;4.01;81.18;96644.88;107986;1272;68644;-68
2021/12/26 08:43:25;;;;;;;9.90;8.60;;;;;;;4.04;81.18;96642.79;107923;1272;68887;-66
2021/12/26 08:48:45;;;;;;;8.00;6.40;;;;;;;4.11;81.05;96645.98;104580;1310;597618;-66
2021/12/26 08:51:14;;;;;;;8.20;7.30;;;;;;;4.12;80.95;96647.72;107151;1287;57675;-67
2021/12/26 08:53:43;;;;;;;8.80;7.70;;;;;;;4.14;80.94;96647.73;107276;1286;57620;-67
2021/12/26 08:56:12;;;;;;;9.80;8.20;;;;;;;4.15;80.85;96643.55;107399;1286;69244;-67
2021/12/26 08:58:41;;;;;;;8.50;7.30;;;;;;;4.17;80.90;96641.39;107290;1285;68386;-68
2021/12/26 09:01:10;;;;;;;7.40;5.80;;;;;;;4.18;80.84;96634.92;107322;1284;69576;-66
2021/12/26 09:03:40;;;;;;;7.50;5.00;;;;;;;4.20;80.80;96637.73;107293;1281;57601;-67
2021/12/26 09:06:09;;;;;;;10.00;8.20;;;;;;;4.23;80.72;96639.61;107402;1284;57678;-69
2021/12/26 09:08:39;;;;;;;7.50;6.50;;;;;;;4.28;80.64;96638.48;107360;1283;68412;-68
2021/12/26 09:11:08;;;;;;;8.50;7.70;;;;;;;4.29;80.44;96638.36;107482;1282;68995;-67
2021/12/26 09:13:36;;;;;;;9.80;8.70;;;;;;;4.27;80.42;96631.59;107326;1284;69467;-69
2021/12/26 09:16:09;;;;;;;8.80;7.90;;;;;;;4.24;80.36;96627.67;107394;1282;58100;-67
2021/12/26 09:18:38;;;;;;;8.60;7.00;;;;;;;4.23;80.40;96625.66;107492;1281;58094;-67
2021/12/26 09:21:07;;;;;;;6.80;6.10;;;;;;;4.22;80.36;96624.70;107421;1284;70618;-66
2021/12/26 09:23:36;;;;;;;6.60;5.90;;;;;;;4.22;80.52;96628.49;107524;1282;69313;-69
2021/12/26 09:26:04;;;;;;;7.40;6.60;;;;;;;4.22;80.45;96626.90;107438;1284;69953;-70
2021/12/26 09:28:36;;;;;;;8.80;7.50;;;;;;;4.24;80.54;96628.70;107485;1282;58100;-69
2021/12/26 09:31:05;;;;;;;5.60;5.10;;;;;;;4.29;80.61;96626.33;107493;1285;58163;-67
2021/12/26 09:33:34;;;;;;;7.60;5.70;;;;;;;4.33;80.57;96627.60;107383;1285;69956;-68
2021/12/26 09:36:03;;;;;;;10.90;8.70;;;;;;;4.36;80.50;96630.58;107514;1284;68902;-68
2021/12/26 09:38:32;;;;;;;9.40;7.70;;;;;;;4.39;80.41;96630.20;107482;1281;69570;-67
2021/12/26 09:41:01;;;;;;;6.90;5.90;;;;;;;4.41;80.33;96629.42;107427;1284;58113;-69
2021/12/26 09:43:31;;;;;;;7.20;6.10;;;;;;;4.43;80.12;96631.84;107405;1285;58125;-68
2021/12/26 09:45:59;;;;;;;8.00;6.80;;;;;;;4.44;79.91;96627.48;107324;1281;70688;-68
2021/12/26 09:48:28;;;;;;;6.60;5.50;;;;;;;4.40;79.71;96623.58;107272;1285;68412;-69
2021/12/26 09:50:58;;;;;;;6.60;5.70;;;;;;;4.33;79.73;96621.21;107654;1283;70044;-69
2021/12/26 09:53:27;;;;;;;6.70;6.00;;;;;;;4.30;79.80;96621.95;107508;1282;58112;-69
2021/12/26 09:55:56;;;;;;;6.70;6.00;;;;;;;4.27;79.77;96619.86;107619;1282;58097;-69
2021/12/26 09:58:24;;;;;;;7.60;6.80;;;;;;;4.26;79.73;96616.33;107619;1282;69339;-69
2021/12/26 10:00:58;;;;;;;7.30;6.60;;;;;;;4.21;79.94;96616.45;107533;1281;69235;-78
2021/12/26 10:03:35;;;;;;;5.50;5.00;;;;;;;4.10;80.22;96620.03;107472;1282;68652;-80
2021/12/26 10:06:17;;;;;;;7.10;5.90;;;;;;;4.01;80.66;96619.34;107629;1281;58096;-76
2021/12/26 10:08:59;;;;;;;8.00;6.60;;;;;;;3.95;80.91;96622.84;107497;1282;58117;-71
2021/12/26 10:11:46;;;;;;;8.40;7.40;;;;;;;3.88;80.96;96628.05;107941;1275;69555;-71
2021/12/26 10:14:23;;;;;;;7.20;6.50;;;;;;;3.86;81.20;96628.67;108282;1273;68856;-76
2021/12/26 10:16:59;;;;;;;9.10;6.60;;;;;;;3.83;81.85;96628.13;108025;1275;69447;-78
2021/12/26 10:19:40;;;;;;;10.20;9.00;;;;;;;3.81;81.54;96623.09;108270;1271;58099;-76
2021/12/26 10:22:11;;;;;;;12.00;9.30;;;;;;;3.74;81.71;96629.91;108380;1273;58151;-76
2021/12/26 10:24:49;;;;;;;11.80;9.20;;;;;;;3.73;82.16;96632.55;108175;1273;69821;-73
2021/12/26 10:27:31;;;;;;;15.30;11.60;;;;;;;3.73;82.53;96632.02;108286;1273;68895;-72
2021/12/26 10:30:04;;;;;;;16.10;11.90;;;;;;;3.71;82.33;96627.52;108202;1274;68597;-72
2021/12/26 10:32:38;;;;;;;20.00;13.80;;;;;;;3.66;82.70;96634.70;108206;1273;58161;-73
2021/12/26 10:35:09;;;;;;;20.60;16.70;;;;;;;3.64;82.81;96633.95;108316;1269;58046;-71
2021/12/26 10:37:44;;;;;;;13.90;10.90;;;;;;;3.61;83.28;96634.95;108281;1273;69212;-73
2021/12/26 10:40:26;;;;;;;10.80;8.80;;;;;;;3.60;83.26;96631.76;108245;1273;69270;-76
2021/12/26 10:43:03;;;;;;;19.80;14.10;;;;;;;3.61;83.03;96642.23;108261;1271;69056;-77
2021/12/26 10:45:34;;;;;;;17.60;13.30;;;;;;;3.63;83.55;96643.16;108184;1272;58152;-78
2021/12/26 10:48:08;;;;;;;14.80;9.90;;;;;;;3.67;83.82;96639.80;108092;1273;58161;-76
2021/12/26 10:50:40;;;;;;;17.80;14.70;;;;;;;3.67;83.70;96639.08;108177;1274;70531;-76
2021/12/26 10:53:14;;;;;;;12.50;9.30;;;;;;;3.67;83.26;96641.34;108255;1272;67253;-72
2021/12/26 10:55:49;;;;;;;13.50;11.50;;;;;;;3.69;83.26;96637.80;108236;1272;69367;-76
2021/12/26 10:58:21;;;;;;;12.40;9.40;;;;;;;3.71;83.12;96639.07;108260;1273;58096;-72
2021/12/26 11:00:55;;;;;;;15.80;11.70;;;;;;;3.73;83.16;96639.22;108238;1272;58078;-72
2021/12/26 11:03:27;;;;;;;16.00;11.40;;;;;;;3.75;83.07;96638.61;108275;1269;70516;-73
2021/12/26 11:06:06;;;;;;;20.50;16.40;;;;;;;3.77;83.28;96635.91;108226;1272;68534;-73
2021/12/26 11:08:41;;;;;;;24.20;17.70;;;;;;;3.80;83.12;96636.79;108013;1273;70057;-72
2021/12/26 11:11:14;;;;;;;21.20;16.10;;;;;;;3.81;82.91;96635.55;108258;1273;58214;-72
2021/12/26 11:13:47;;;;;;;17.70;14.30;;;;;;;3.76;83.21;96634.42;108205;1273;58111;-72
2021/12/26 11:16:16;;;;;;;21.90;17.30;;;;;;;3.79;83.39;96637.86;108111;1272;70648;-72
2021/12/26 11:18:54;;;;;;;24.70;16.40;;;;;;;3.84;83.49;96639.32;108342;1273;66669;-72
2021/12/26 11:21:23;;;;;;;17.20;13.30;;;;;;;3.86;83.10;96634.73;108261;1273;69434;-73
2021/12/26 11:23:52;;;;;;;11.70;9.00;;;;;;;3.83;82.91;96638.88;108172;1272;58171;-75
2021/12/26 11:26:22;;;;;;;13.60;11.20;;;;;;;3.83;83.01;96648.48;108243;1273;58117;-76
2021/12/26 11:28:54;;;;;;;18.20;14.00;;;;;;;3.86;82.98;96646.96;108317;1272;69984;-71
2021/12/26 11:31:29;;;;;;;18.10;12.70;;;;;;;3.90;82.94;96640.03;108037;1273;68868;-76
2021/12/26 11:34:04;;;;;;;13.60;10.80;;;;;;;3.93;83.18;96638.12;108200;1273;70058;-77
2021/12/26 11:36:33;;;;;;;14.10;12.00;;;;;;;3.96;82.96;96629.65;108243;1269;58071;-75
2021/12/26 11:39:41;;;;;;;11.70;9.40;;;;;;;3.99;83.12;96629.83;108167;1273;58038;-73
2021/12/26 11:42:49;;;;;;;13.60;12.10;;;;;;;4.06;82.98;96635.42;108161;1272;69982;-77
2021/12/26 11:45:54;;;;;;;12.00;10.20;;;;;;;4.08;82.94;96638.89;108239;1269;68771;-76
2021/12/26 11:49:08;;;;;;;7.90;7.00;;;;;;;4.13;82.62;96639.73;108202;1272;70186;-74
2021/12/26 11:52:13;;;;;;;9.10;8.10;;;;;;;4.14;82.39;96642.73;108332;1271;58074;-73
2021/12/26 11:55:23;;;;;;;6.90;6.20;;;;;;;4.10;82.36;96642.65;108336;1272;58097;-73
2021/12/26 11:58:29;;;;;;;6.60;5.90;;;;;;;4.09;82.65;96642.68;108267;1270;69967;-73
2021/12/26 12:01:00;;;;;;;8.90;8.00;;;;;;;4.12;82.58;96646.85;108293;1271;68629;-73
2021/12/26 12:03:32;;;;;;;9.50;8.50;;;;;;;4.10;82.24;96655.19;108267;1272;69495;-73
2021/12/26 12:06:01;;;;;;;7.50;6.60;;;;;;;4.06;82.28;96658.00;108370;1269;58115;-74
2021/12/26 12:08:35;;;;;;;7.20;6.50;;;;;;;4.08;82.42;96657.58;108272;1272;58164;-72
2021/12/26 12:11:08;;;;;;;5.70;5.20;;;;;;;4.10;82.54;96659.89;108176;1269;68828;-74